Time;durP1;ratioP1;P1;durP2;ratioP2;P2;SDS_P1;SDS_P2;PMS_P1;PMS_P2;Temp;Humidity;BMP_temperature;BMP_pressure;BME280_temperature;BME280_humidity;BME280_pressure;Samples;Min_cycle;Max_cycle;Signal;HPM_P1;HPM_P2
2022/04/17 00:00:35;;;;;;;5.07;4.57;;;13.50;37.50;;;;;;5076516;28;20456;-71
2022/04/17 00:03:02;;;;;;;5.20;3.90;;;13.40;37.20;;;;;;5076125;28;21018;-71
2022/04/17 00:05:29;;;;;;;4.90;4.00;;;13.40;37.50;;;;;;5076757;28;20444;-71
2022/04/17 00:07:57;;;;;;;5.27;4.00;;;13.30;38.00;;;;;;5076726;28;20487;-71
2022/04/17 00:10:24;;;;;;;8.47;4.40;;;13.30;38.60;;;;;;5076637;28;20448;-71
2022/04/17 00:12:51;;;;;;;4.60;3.97;;;13.30;38.90;;;;;;5076520;28;20464;-71
2022/04/17 00:15:18;;;;;;;7.63;4.73;;;13.20;39.10;;;;;;5076536;28;20483;-71
2022/04/17 00:17:44;;;;;;;4.63;4.07;;;13.20;39.20;;;;;;5076526;28;20441;-71
2022/04/17 00:20:13;;;;;;;5.00;4.27;;;13.20;39.30;;;;;;5076238;28;20456;-71
2022/04/17 00:22:40;;;;;;;6.30;4.60;;;13.10;39.40;;;;;;5076280;28;20476;-71
2022/04/17 00:25:09;;;;;;;6.00;4.80;;;13.10;39.90;;;;;;5076336;28;20452;-71
2022/04/17 00:27:39;;;;;;;7.10;5.80;;;13.10;39.80;;;;;;5076306;28;20452;-71
2022/04/17 00:30:07;;;;;;;6.57;5.60;;;13.00;39.80;;;;;;5076241;28;20437;-71
2022/04/17 00:32:34;;;;;;;6.60;4.97;;;13.00;39.80;;;;;;5076155;28;20574;-71
2022/04/17 00:35:02;;;;;;;8.83;5.33;;;12.90;40.10;;;;;;5076227;28;20456;-71
2022/04/17 00:37:28;;;;;;;7.97;5.93;;;12.90;40.50;;;;;;5076300;28;20448;-71
2022/04/17 00:39:55;;;;;;;7.80;6.47;;;12.80;40.40;;;;;;5075971;28;20867;-71
2022/04/17 00:42:23;;;;;;;8.17;5.73;;;12.80;40.20;;;;;;5076282;28;20474;-71
2022/04/17 00:44:50;;;;;;;10.63;6.47;;;12.80;40.40;;;;;;5075940;28;20489;-71
2022/04/17 00:47:17;;;;;;;8.30;6.90;;;12.70;40.40;;;;;;5076063;28;20453;-71
2022/04/17 00:49:45;;;;;;;9.80;6.97;;;12.70;40.60;;;;;;5075840;28;20445;-71
2022/04/17 00:52:12;;;;;;;7.03;6.00;;;12.70;40.50;;;;;;5075453;28;20465;-71
2022/04/17 00:54:43;;;;;;;7.50;5.70;;;12.60;40.00;;;;;;5075814;28;20453;-71
2022/04/17 00:57:12;;;;;;;8.93;5.97;;;12.60;40.30;;;;;;5075897;28;20439;-71
2022/04/17 00:59:42;;;;;;;8.30;6.70;;;12.60;41.00;;;;;;5076025;28;20491;-71
2022/04/17 01:02:09;;;;;;;7.57;5.37;;;12.50;40.50;;;;;;5075616;28;20476;-71
2022/04/17 01:04:36;;;;;;;8.63;5.60;;;12.60;40.50;;;;;;5075185;28;20877;-71
2022/04/17 01:07:03;;;;;;;7.70;5.47;;;12.50;40.40;;;;;;5075549;28;20456;-71
2022/04/17 01:09:30;;;;;;;5.67;4.87;;;12.50;40.60;;;;;;5075709;28;20514;-71
2022/04/17 01:11:57;;;;;;;5.00;4.50;;;12.50;40.50;;;;;;5075168;28;20502;-71
2022/04/17 01:14:26;;;;;;;7.27;5.13;;;12.50;40.70;;;;;;5075502;28;20451;-71
2022/04/17 01:16:55;;;;;;;5.20;4.40;;;12.40;41.20;;;;;;5075285;28;20448;-71
2022/04/17 01:19:23;;;;;;;5.43;4.00;;;12.40;40.90;;;;;;5075148;28;20460;-71
2022/04/17 01:21:53;;;;;;;5.20;4.20;;;12.40;40.50;;;;;;5075197;28;20564;-71
2022/04/17 01:27:05;;;;;;;5.80;4.20;;;12.30;41.00;;;;;;5075318;28;20424;-71
2022/04/17 01:29:34;;;;;;;5.03;3.77;;;12.30;41.50;;;;;;5075250;28;20445;-71
2022/04/17 01:32:03;;;;;;;5.03;4.23;;;12.20;41.50;;;;;;5075014;28;20479;-71
2022/04/17 01:34:30;;;;;;;5.83;4.40;;;12.30;41.20;;;;;;5075029;28;20456;-71
2022/04/17 01:36:59;;;;;;;4.80;4.33;;;12.20;41.80;;;;;;5074997;28;20452;-71
2022/04/17 01:39:26;;;;;;;4.50;3.40;;;12.20;42.10;;;;;;5075009;28;20875;-71
2022/04/17 01:41:55;;;;;;;6.70;4.50;;;12.10;41.60;;;;;;5074837;28;20471;-71
2022/04/17 01:44:22;;;;;;;5.13;3.80;;;12.10;42.70;;;;;;5074788;28;20488;-71
2022/04/17 01:46:50;;;;;;;5.90;3.73;;;12.00;43.30;;;;;;5074525;28;20452;-71
2022/04/17 01:49:17;;;;;;;4.50;3.57;;;12.00;42.60;;;;;;5074851;28;20452;-71
2022/04/17 01:51:46;;;;;;;3.87;3.53;;;12.00;42.10;;;;;;5074539;28;20476;-71
2022/04/17 01:54:15;;;;;;;4.07;3.13;;;12.00;42.30;;;;;;5074366;28;20437;-71
2022/04/17 01:56:43;;;;;;;5.37;3.60;;;12.00;42.40;;;;;;5075147;28;20463;-71
2022/04/17 01:59:11;;;;;;;4.20;3.80;;;12.00;42.10;;;;;;5074625;28;20483;-71
2022/04/17 02:01:39;;;;;;;4.83;4.33;;;12.00;42.40;;;;;;5074466;28;20529;-71
2022/04/17 02:04:07;;;;;;;4.53;3.63;;;11.90;42.80;;;;;;5073602;28;20476;-71
2022/04/17 02:06:35;;;;;;;3.63;3.30;;;11.90;43.20;;;;;;5074494;28;20869;-71
2022/04/17 02:09:03;;;;;;;4.63;3.30;;;11.90;43.00;;;;;;5074519;28;20456;-71
2022/04/17 02:11:31;;;;;;;4.40;3.80;;;11.90;42.60;;;;;;5074046;28;20477;-71
2022/04/17 02:13:58;;;;;;;3.50;3.20;;;11.90;42.40;;;;;;5074301;28;20441;-71
2022/04/17 02:16:25;;;;;;;5.23;4.07;;;11.80;43.20;;;;;;5074307;28;20464;-71
2022/04/17 02:18:53;;;;;;;3.80;3.50;;;11.80;43.30;;;;;;5074173;28;20464;-71
2022/04/17 02:21:21;;;;;;;4.80;3.67;;;11.80;43.20;;;;;;5074448;28;20472;-71
2022/04/17 02:23:49;;;;;;;4.50;3.30;;;11.80;42.90;;;;;;5074804;28;20476;-71
2022/04/17 02:26:17;;;;;;;3.83;3.33;;;11.80;42.50;;;;;;5074153;28;20452;-71
2022/04/17 02:28:46;;;;;;;7.80;3.93;;;11.80;43.20;;;;;;5074249;28;20508;-71
2022/04/17 02:31:13;;;;;;;6.87;3.37;;;11.80;43.00;;;;;;5074317;28;20475;-71
2022/04/17 02:33:40;;;;;;;3.60;3.30;;;11.80;43.50;;;;;;5074154;28;20472;-71
2022/04/17 02:36:08;;;;;;;7.57;4.03;;;11.80;42.80;;;;;;5074093;28;20457;-71
2022/04/17 02:38:35;;;;;;;5.03;3.87;;;11.70;42.60;;;;;;5074050;28;20457;-71
2022/04/17 02:41:02;;;;;;;6.50;3.90;;;11.80;42.50;;;;;;5073907;28;20481;-71
2022/04/17 02:43:28;;;;;;;6.40;3.47;;;11.80;42.40;;;;;;5073845;28;20578;-71
2022/04/17 02:45:56;;;;;;;5.47;4.53;;;11.80;42.50;;;;;;5073909;28;20449;-71
2022/04/17 02:48:23;;;;;;;5.60;4.20;;;11.70;42.50;;;;;;5073846;28;20448;-71
2022/04/17 02:50:50;;;;;;;7.07;5.07;;;11.70;42.60;;;;;;5073545;28;21019;-71
2022/04/17 02:53:18;;;;;;;8.30;5.87;;;11.70;42.70;;;;;;5073628;28;20449;-71
2022/04/17 02:55:45;;;;;;;5.77;4.83;;;11.60;42.80;;;;;;5074488;28;20451;-71
2022/04/17 02:58:12;;;;;;;6.23;5.63;;;11.60;42.80;;;;;;5073715;28;20448;-71
2022/04/17 03:05:36;;;;;;;8.03;6.60;;;11.60;43.10;;;;;;5073862;28;20471;-71
2022/04/17 03:06:15;;;;;;;9.43;6.40;;;11.50;42.90;;;;;;5073491;28;20943;-71
2022/04/17 03:08:43;;;;;;;9.40;6.60;;;11.40;43.00;;;;;;5073663;28;20437;-71
2022/04/17 03:11:10;;;;;;;9.03;6.60;;;11.30;43.20;;;;;;5073550;28;20473;-71
2022/04/17 03:13:37;;;;;;;11.40;7.57;;;11.30;43.20;;;;;;5073433;28;20510;-71
2022/04/17 03:16:04;;;;;;;10.03;7.67;;;11.30;43.50;;;;;;5073250;28;20441;-71
2022/04/17 03:18:32;;;;;;;10.73;7.60;;;11.20;43.80;;;;;;5073323;28;20452;-71
2022/04/17 03:20:59;;;;;;;10.87;6.87;;;11.20;43.90;;;;;;5073105;28;20465;-71
2022/04/17 03:23:26;;;;;;;6.73;5.50;;;11.10;43.90;;;;;;5072977;28;20939;-71
2022/04/17 03:25:54;;;;;;;6.97;5.83;;;11.10;44.00;;;;;;5073316;28;20441;-71
2022/04/17 03:28:20;;;;;;;6.60;4.80;;;11.00;44.00;;;;;;5072880;28;20856;-71
2022/04/17 03:30:47;;;;;;;5.53;5.03;;;11.00;44.00;;;;;;5072971;28;20948;-71
2022/04/17 03:33:14;;;;;;;5.50;4.70;;;10.90;44.00;;;;;;5073301;28;20448;-71
2022/04/17 03:35:42;;;;;;;4.20;3.63;;;10.90;44.50;;;;;;5073394;28;20448;-71
2022/04/17 03:38:10;;;;;;;5.07;4.30;;;10.80;45.90;;;;;;5073201;28;20456;-71
2022/04/17 03:40:37;;;;;;;5.10;4.27;;;10.80;45.90;;;;;;5073184;28;20479;-71
2022/04/17 03:43:04;;;;;;;5.30;4.60;;;10.80;45.20;;;;;;5073109;28;20487;-71
2022/04/17 03:45:31;;;;;;;4.47;4.07;;;10.70;45.00;;;;;;5073225;28;20481;-71
2022/04/17 03:47:58;;;;;;;6.10;4.03;;;10.70;44.80;;;;;;5073193;28;20449;-71
2022/04/17 03:50:25;;;;;;;5.20;4.70;;;10.60;44.90;;;;;;5073193;28;20495;-71
2022/04/17 03:52:53;;;;;;;6.83;4.57;;;10.50;44.80;;;;;;5073100;28;20507;-71
2022/04/17 03:55:20;;;;;;;4.97;4.53;;;10.50;45.50;;;;;;5072934;28;20452;-71
2022/04/17 03:57:48;;;;;;;5.53;5.03;;;10.40;45.70;;;;;;5072804;28;20464;-71
2022/04/17 04:00:15;;;;;;;6.33;4.50;;;10.40;46.00;;;;;;5073063;28;20448;-71
2022/04/17 04:02:43;;;;;;;4.60;4.20;;;10.40;46.00;;;;;;5072991;28;20473;-71
2022/04/17 04:05:11;;;;;;;5.30;4.70;;;10.40;46.10;;;;;;5072885;28;20476;-71
2022/04/17 04:07:39;;;;;;;5.67;4.50;;;10.30;46.00;;;;;;5073087;28;20494;-71
2022/04/17 04:10:09;;;;;;;4.13;3.83;;;10.30;46.30;;;;;;5072862;28;20456;-71
2022/04/17 04:12:36;;;;;;;4.83;4.33;;;10.30;46.30;;;;;;5072753;28;20469;-71
2022/04/17 04:15:04;;;;;;;4.40;4.00;;;10.20;46.90;;;;;;5072644;28;20440;-71
2022/04/17 04:17:31;;;;;;;4.60;3.57;;;10.20;46.90;;;;;;5072889;28;20457;-71
2022/04/17 04:19:58;;;;;;;5.07;4.27;;;10.20;47.30;;;;;;5072543;28;20460;-71
2022/04/17 04:22:25;;;;;;;5.30;4.53;;;10.20;47.70;;;;;;5072770;28;20473;-71
2022/04/17 04:24:52;;;;;;;5.77;4.40;;;10.20;47.40;;;;;;5072929;28;20480;-71
2022/04/17 04:30:05;;;;;;;8.13;4.20;;;10.20;47.00;;;;;;5076134;28;20542;-71
2022/04/17 04:32:31;;;;;;;4.30;3.33;;;10.20;46.90;;;;;;5075802;28;20846;-71
2022/04/17 04:35:00;;;;;;;4.60;4.20;;;10.10;46.60;;;;;;5075959;28;20444;-71
2022/04/17 04:37:27;;;;;;;4.47;4.07;;;10.10;47.10;;;;;;5076108;28;20456;-71
2022/04/17 04:39:53;;;;;;;7.23;4.43;;;10.10;47.30;;;;;;5076286;28;20546;-71
2022/04/17 04:42:22;;;;;;;4.40;4.00;;;10.10;47.60;;;;;;5076046;28;20477;-71
2022/04/17 04:46:06;;;;;;;4.80;4.40;;;10.00;47.60;;;;;;5076016;28;20506;-71
2022/04/17 04:47:35;;;;;;;5.00;4.47;;;10.00;47.50;;;;;;5075549;28;20490;-71
2022/04/17 04:50:03;;;;;;;5.40;4.20;;;10.00;48.00;;;;;;5076196;28;20456;-71
2022/04/17 04:52:29;;;;;;;4.60;4.30;;;10.00;47.70;;;;;;5075969;28;20284;-71
2022/04/17 04:54:56;;;;;;;5.93;4.83;;;10.00;48.10;;;;;;5075845;28;20814;-71
2022/04/17 04:57:24;;;;;;;5.43;4.93;;;10.00;48.40;;;;;;5075813;28;20440;-71
2022/04/17 04:59:51;;;;;;;10.13;7.47;;;10.10;48.50;;;;;;5075734;28;20449;-71
2022/04/17 05:02:18;;;;;;;10.97;8.40;;;10.00;48.40;;;;;;5075818;28;20480;-71
2022/04/17 05:04:45;;;;;;;12.63;11.53;;;10.10;48.20;;;;;;5075883;28;20484;-71
2022/04/17 05:07:12;;;;;;;11.60;10.50;;;10.10;48.40;;;;;;5075953;28;20476;-71
2022/04/17 05:09:39;;;;;;;12.40;10.87;;;10.10;48.10;;;;;;5076163;28;20822;-71
2022/04/17 05:12:06;;;;;;;13.10;10.87;;;10.10;48.20;;;;;;5075542;28;20467;-71
2022/04/17 05:14:34;;;;;;;17.27;13.60;;;10.10;48.00;;;;;;5075470;28;20536;-71
2022/04/17 05:17:01;;;;;;;11.73;10.33;;;10.20;47.90;;;;;;5075389;28;20448;-71
2022/04/17 05:19:29;;;;;;;12.50;9.97;;;10.10;47.80;;;;;;5074962;28;20484;-71
2022/04/17 05:21:58;;;;;;;10.83;9.33;;;10.10;48.40;;;;;;5075365;28;20542;-71
2022/04/17 05:24:26;;;;;;;10.03;7.73;;;10.10;49.30;;;;;;5075258;28;20523;-71
2022/04/17 05:26:53;;;;;;;9.03;6.60;;;10.10;48.20;;;;;;5075025;28;20948;-71
2022/04/17 05:29:20;;;;;;;7.27;6.13;;;10.20;48.10;;;;;;5075101;28;20452;-71
2022/04/17 05:31:49;;;;;;;7.53;5.73;;;10.20;47.90;;;;;;5075084;28;20496;-71
2022/04/17 05:34:16;;;;;;;7.40;6.23;;;10.20;48.00;;;;;;5075029;28;20484;-71
2022/04/17 05:36:43;;;;;;;5.37;4.57;;;10.30;47.90;;;;;;5075048;28;20472;-71
2022/04/17 05:39:10;;;;;;;8.47;5.47;;;10.30;48.00;;;;;;5073943;28;20484;-71
2022/04/17 05:41:38;;;;;;;5.57;4.97;;;10.30;48.00;;;;;;5075381;28;20870;-71
2022/04/17 05:44:06;;;;;;;5.63;4.37;;;10.30;48.10;;;;;;5074802;28;20457;-71
2022/04/17 05:46:35;;;;;;;7.13;4.20;;;10.40;48.10;;;;;;5074813;28;20481;-71
2022/04/17 05:49:04;;;;;;;5.87;3.90;;;10.40;48.00;;;;;;5074876;28;20854;-71
2022/04/17 05:51:31;;;;;;;4.97;4.03;;;10.40;48.90;;;;;;5074830;28;20483;-71
2022/04/17 05:53:59;;;;;;;5.17;3.40;;;10.50;48.50;;;;;;5074259;28;20961;-71
2022/04/17 05:56:26;;;;;;;6.30;4.13;;;10.40;48.50;;;;;;5074840;28;20506;-71
2022/04/17 05:58:53;;;;;;;4.13;3.40;;;10.40;49.60;;;;;;5074558;28;20433;-71
2022/04/17 06:01:20;;;;;;;6.13;4.47;;;10.50;49.80;;;;;;5074673;28;20506;-71
2022/04/17 06:03:47;;;;;;;4.33;3.67;;;10.50;49.80;;;;;;5074621;28;20459;-71
2022/04/17 06:06:15;;;;;;;12.20;5.13;;;10.50;49.80;;;;;;5074410;28;20484;-71
2022/04/17 06:08:42;;;;;;;7.80;3.97;;;10.60;49.40;;;;;;5074116;28;20944;-71
2022/04/17 06:11:08;;;;;;;8.60;4.50;;;10.60;49.10;;;;;;5074326;28;20469;-71
2022/04/17 06:13:35;;;;;;;7.60;3.77;;;10.70;48.80;;;;;;5074154;28;20801;-71
2022/04/17 06:16:02;;;;;;;5.13;3.80;;;10.70;49.20;;;;;;5074431;28;20449;-71
2022/04/17 06:18:29;;;;;;;8.20;5.37;;;10.80;49.40;;;;;;5074047;28;20452;-71
2022/04/17 06:20:56;;;;;;;4.90;4.50;;;10.90;49.10;;;;;;5074503;28;20835;-71
2022/04/17 06:23:24;;;;;;;6.23;4.10;;;11.00;48.90;;;;;;5074354;28;20449;-71
2022/04/17 06:25:51;;;;;;;4.00;3.33;;;11.00;48.30;;;;;;5074084;28;20485;-71
2022/04/17 06:28:18;;;;;;;4.23;3.83;;;11.10;48.30;;;;;;5074132;28;20457;-71
2022/04/17 06:30:44;;;;;;;4.03;3.73;;;11.10;48.70;;;;;;5074086;28;20441;-71
2022/04/17 06:33:11;;;;;;;3.17;2.87;;;11.20;48.60;;;;;;5074039;28;20455;-71
2022/04/17 06:35:38;;;;;;;6.80;3.47;;;11.20;48.20;;;;;;5073993;28;20445;-71
2022/04/17 06:38:08;;;;;;;4.13;3.83;;;11.30;47.90;;;;;;5073948;28;20448;-71
2022/04/17 06:40:37;;;;;;;5.13;3.70;;;11.40;48.00;;;;;;5073568;28;20444;-71
2022/04/17 06:43:07;;;;;;;6.00;3.77;;;11.50;48.00;;;;;;5073924;28;20484;-71
2022/04/17 06:45:35;;;;;;;5.90;3.00;;;11.50;47.80;;;;;;5073954;28;20460;-71
2022/04/17 06:48:12;;;;;;;8.60;3.43;;;11.60;47.40;;;;;;5073733;28;20448;-71
2022/04/17 06:50:39;;;;;;;5.53;3.90;;;11.70;47.50;;;;;;5073311;28;20479;-71
2022/04/17 06:53:06;;;;;;;4.20;3.60;;;11.80;47.60;;;;;;5073773;28;20449;-71
2022/04/17 06:55:33;;;;;;;4.40;3.40;;;11.80;47.20;;;;;;5073754;28;20821;-71
2022/04/17 06:58:01;;;;;;;3.10;2.30;;;11.90;47.00;;;;;;5073662;28;20441;-71
2022/04/17 07:00:27;;;;;;;5.40;2.87;;;12.00;45.80;;;;;;5073608;28;20463;-71
2022/04/17 07:02:54;;;;;;;4.50;2.97;;;12.00;45.40;;;;;;5073211;28;21018;-71
2022/04/17 07:05:21;;;;;;;3.83;2.40;;;12.10;45.90;;;;;;5073486;28;20503;-71
2022/04/17 07:07:56;;;;;;;6.30;3.17;;;12.20;45.90;;;;;;5073252;28;20860;-71
2022/04/17 07:10:23;;;;;;;4.03;2.97;;;12.30;45.50;;;;;;5073379;28;20924;-71
2022/04/17 07:12:52;;;;;;;3.13;2.83;;;12.40;45.60;;;;;;5073582;28;20468;-71
2022/04/17 07:15:20;;;;;;;3.13;2.70;;;12.50;45.10;;;;;;5073599;28;20527;-71
2022/04/17 07:17:47;;;;;;;3.60;3.03;;;12.60;45.10;;;;;;5073523;28;20452;-71
2022/04/17 07:20:15;;;;;;;2.97;2.63;;;12.70;45.80;;;;;;5073203;28;20467;-71
2022/04/17 07:22:42;;;;;;;3.20;2.67;;;12.80;45.60;;;;;;5073599;28;20511;-71
2022/04/17 07:25:11;;;;;;;3.63;2.70;;;13.00;45.20;;;;;;5073324;28;21029;-71
2022/04/17 07:27:40;;;;;;;3.33;2.50;;;13.20;44.00;;;;;;5073491;28;20448;-71
2022/04/17 07:30:11;;;;;;;3.10;2.30;;;13.20;43.80;;;;;;5073738;28;20457;-71
2022/04/17 07:32:39;;;;;;;4.13;2.67;;;13.20;42.40;;;;;;5073621;28;20471;-71
2022/04/17 07:35:06;;;;;;;3.30;2.43;;;13.30;42.10;;;;;;5073745;28;20480;-71
2022/04/17 07:37:35;;;;;;;3.13;2.80;;;13.30;43.10;;;;;;5073295;28;20946;-71
2022/04/17 07:40:02;;;;;;;2.90;2.60;;;13.40;43.00;;;;;;5073594;28;20502;-71
2022/04/17 07:42:29;;;;;;;3.03;2.83;;;13.60;42.50;;;;;;5073615;28;20480;-71
2022/04/17 07:44:56;;;;;;;3.70;3.40;;;13.60;41.80;;;;;;5073204;28;20445;-71
2022/04/17 07:47:22;;;;;;;3.67;3.27;;;13.70;42.70;;;;;;5073406;28;20873;-71
2022/04/17 07:49:51;;;;;;;5.60;2.80;;;13.90;43.30;;;;;;5073183;28;20460;-70
2022/04/17 07:52:18;;;;;;;2.83;2.37;;;14.10;43.30;;;;;;5073205;28;20555;-71
2022/04/17 07:54:44;;;;;;;4.03;2.40;;;14.30;42.70;;;;;;5073040;28;20445;-71
2022/04/17 07:57:14;;;;;;;2.60;2.33;;;14.50;41.80;;;;;;5073077;28;20445;-71
2022/04/17 07:59:41;;;;;;;3.10;2.33;;;14.70;41.70;;;;;;5073025;28;20452;-71
2022/04/17 08:02:22;;;;;;;3.13;2.20;;;15.00;41.80;;;;;;5073025;28;20507;-71
2022/04/17 08:04:51;;;;;;;3.40;2.07;;;15.20;41.30;;;;;;5077543;28;20838;-71
2022/04/17 08:07:19;;;;;;;4.23;2.33;;;15.40;40.60;;;;;;5076742;28;20440;-70
2022/04/17 08:09:45;;;;;;;3.50;2.60;;;15.60;39.80;;;;;;5076703;28;20448;-70
2022/04/17 08:12:12;;;;;;;2.90;2.57;;;15.70;39.60;;;;;;5076819;28;20489;-71
2022/04/17 08:14:39;;;;;;;3.60;2.50;;;16.00;38.40;;;;;;5076822;28;20449;-71
2022/04/17 08:17:06;;;;;;;2.40;2.20;;;16.10;38.20;;;;;;5076847;28;20452;-71
2022/04/17 08:19:35;;;;;;;2.30;2.10;;;16.10;36.80;;;;;;5076322;28;20468;-71
2022/04/17 08:22:03;;;;;;;2.93;2.07;;;16.20;37.70;;;;;;5076572;28;20468;-71
2022/04/17 08:24:30;;;;;;;3.40;2.50;;;16.40;36.70;;;;;;5076612;28;20441;-71
2022/04/17 08:26:58;;;;;;;2.87;2.23;;;16.40;35.90;;;;;;5076339;28;20494;-71
2022/04/17 08:29:25;;;;;;;3.33;2.57;;;16.60;36.90;;;;;;5076173;28;20986;-71
2022/04/17 08:31:52;;;;;;;2.77;2.30;;;16.80;37.20;;;;;;5076239;28;20472;-71
2022/04/17 08:34:19;;;;;;;4.80;2.47;;;16.90;36.20;;;;;;5076224;28;20464;-71
2022/04/17 08:36:46;;;;;;;3.73;2.43;;;17.00;36.90;;;;;;5075826;28;20852;-71
2022/04/17 08:39:14;;;;;;;2.50;2.30;;;17.30;37.40;;;;;;5076183;28;20452;-71
2022/04/17 08:41:44;;;;;;;3.90;2.57;;;17.50;37.00;;;;;;5076155;28;20468;-71
2022/04/17 08:44:11;;;;;;;2.83;2.40;;;17.70;35.70;;;;;;5076144;28;20449;-71
2022/04/17 08:46:38;;;;;;;5.03;2.40;;;17.90;35.40;;;;;;5075914;28;20480;-71
2022/04/17 08:49:06;;;;;;;2.33;1.93;;;18.00;34.30;;;;;;5075658;28;20970;-71
2022/04/17 08:51:33;;;;;;;2.80;2.30;;;18.10;35.10;;;;;;5075854;28;20464;-71
2022/04/17 08:54:02;;;;;;;4.37;2.53;;;18.30;34.20;;;;;;5075950;28;20460;-71
2022/04/17 08:56:30;;;;;;;2.37;2.17;;;18.50;33.80;;;;;;5075553;28;20446;-71
2022/04/17 08:58:58;;;;;;;3.00;2.27;;;18.60;33.60;;;;;;5075957;28;20453;-71
2022/04/17 09:01:25;;;;;;;3.60;1.93;;;18.80;33.50;;;;;;5075769;28;20473;-71
2022/04/17 09:03:52;;;;;;;2.40;1.90;;;19.10;34.00;;;;;;5075423;28;20456;-71
2022/04/17 09:06:19;;;;;;;2.93;2.57;;;19.30;33.10;;;;;;5075603;28;20487;-71
2022/04/17 09:09:00;;;;;;;2.60;2.40;;;19.50;32.70;;;;;;5075192;28;20488;-71
2022/04/17 09:11:27;;;;;;;2.83;1.83;;;19.60;32.30;;;;;;5075518;28;20468;-71
2022/04/17 09:13:56;;;;;;;2.43;1.93;;;19.70;30.50;;;;;;5075324;28;20449;-71
2022/04/17 09:16:27;;;;;;;2.90;2.27;;;19.80;31.50;;;;;;5075447;28;20484;-71
2022/04/17 09:18:54;;;;;;;2.83;2.33;;;20.00;31.20;;;;;;5075363;28;20503;-71
2022/04/17 09:21:32;;;;;;;2.50;2.30;;;20.20;30.00;;;;;;5075393;28;20487;-71
2022/04/17 09:24:14;;;;;;;2.97;1.83;;;20.10;29.40;;;;;;5075427;28;20452;-71
2022/04/17 09:26:49;;;;;;;1.90;1.63;;;20.10;30.00;;;;;;5075355;28;20507;-71
2022/04/17 09:29:22;;;;;;;4.47;2.40;;;20.30;30.50;;;;;;5075555;28;20460;-71
2022/04/17 09:31:57;;;;;;;4.50;1.97;;;20.50;29.80;;;;;;5075505;28;20526;-71
2022/04/17 09:34:24;;;;;;;3.13;2.70;;;20.70;30.90;;;;;;5074985;28;20954;-71
2022/04/17 09:36:53;;;;;;;2.23;1.90;;;21.00;30.70;;;;;;5074862;28;20932;-71
2022/04/17 09:39:20;;;;;;;3.87;2.10;;;21.20;29.80;;;;;;5075002;28;20448;-71
2022/04/17 09:41:57;;;;;;;2.10;1.90;;;21.20;28.10;;;;;;5075108;28;20500;-71
2022/04/17 09:44:49;;;;;;;2.20;2.00;;;21.30;28.60;;;;;;5074971;28;20448;-71
2022/04/17 09:47:20;;;;;;;3.23;2.20;;;21.20;27.60;;;;;;5074912;28;20471;-71
2022/04/17 09:49:59;;;;;;;2.07;1.87;;;21.10;27.60;;;;;;5075427;28;20871;-71
2022/04/17 09:52:28;;;;;;;5.00;3.00;;;20.90;27.60;;;;;;5074966;28;20469;-71
2022/04/17 09:54:55;;;;;;;1.97;1.80;;;20.80;28.10;;;;;;5075485;28;20461;-71
2022/04/17 09:57:33;;;;;;;2.80;2.17;;;20.80;29.20;;;;;;5074712;28;20448;-71
2022/04/17 10:00:10;;;;;;;4.90;1.97;;;21.20;30.40;;;;;;5074591;28;20439;-71
2022/04/17 10:02:38;;;;;;;3.20;2.17;;;21.60;29.70;;;;;;5074809;28;20492;-71
2022/04/17 10:05:06;;;;;;;2.77;2.57;;;22.00;28.10;;;;;;5074408;28;20932;-71
2022/04/17 10:07:33;;;;;;;3.43;2.50;;;22.40;27.90;;;;;;5074562;28;20487;-71
2022/04/17 10:09:59;;;;;;;3.40;2.40;;;22.80;28.50;;;;;;5074522;28;20441;-71
2022/04/17 10:12:26;;;;;;;2.50;1.80;;;23.30;28.90;;;;;;5074341;28;20464;-71
2022/04/17 10:14:53;;;;;;;2.43;2.20;;;23.90;28.10;;;;;;5074436;28;20449;-71
2022/04/17 10:17:23;;;;;;;3.67;2.00;;;24.30;25.10;;;;;;5074297;28;20473;-71
2022/04/17 10:19:51;;;;;;;2.43;2.17;;;24.10;24.60;;;;;;5074225;28;20460;-71
2022/04/17 10:22:20;;;;;;;1.97;1.80;;;24.20;25.00;;;;;;5074689;28;20469;-71
2022/04/17 10:24:52;;;;;;;2.73;2.10;;;24.50;26.30;;;;;;5073999;28;20892;-71
2022/04/17 10:27:22;;;;;;;1.77;1.67;;;25.00;26.10;;;;;;5074464;28;20505;-69
2022/04/17 10:29:54;;;;;;;1.87;1.77;;;25.50;25.50;;;;;;5074821;28;20519;-71
2022/04/17 10:32:44;;;;;;;2.90;1.80;;;26.00;23.90;;;;;;5073829;28;20473;-72
2022/04/17 10:35:33;;;;;;;2.23;1.90;;;26.70;23.90;;;;;;5073723;28;20435;-69
2022/04/17 10:38:24;;;;;;;1.80;1.60;;;27.40;23.60;;;;;;5073732;28;20433;-69
2022/04/17 10:40:56;;;;;;;4.13;2.20;;;28.10;22.90;;;;;;5073914;28;20471;-69
2022/04/17 10:43:23;;;;;;;3.63;2.03;;;28.70;21.60;;;;;;5073804;28;20445;-69
2022/04/17 10:46:13;;;;;;;2.07;1.77;;;29.40;21.60;;;;;;5073647;28;20444;-69
2022/04/17 10:48:48;;;;;;;2.70;2.07;;;30.10;21.10;;;;;;5074579;28;20449;-69
2022/04/17 10:51:22;;;;;;;2.10;1.90;;;30.70;21.10;;;;;;5073284;28;20983;-69
2022/04/17 10:54:07;;;;;;;2.00;1.90;;;31.30;19.70;;;;;;5073762;28;20456;-69
2022/04/17 10:56:35;;;;;;;2.00;1.90;;;32.00;19.50;;;;;;5073433;28;20942;-69
2022/04/17 10:59:06;;;;;;;2.07;1.80;;;32.50;18.90;;;;;;5073559;28;20840;-69
2022/04/17 11:02:04;;;;;;;2.07;1.93;;;33.10;18.20;;;;;;5073108;28;20983;-69
2022/04/17 11:04:39;;;;;;;4.00;2.10;;;33.70;17.80;;;;;;5074315;28;20814;-69
2022/04/17 11:07:28;;;;;;;2.27;2.13;;;34.10;17.60;;;;;;5073484;28;20520;-69
2022/04/17 11:10:07;;;;;;;2.10;1.90;;;34.50;16.90;;;;;;5073473;28;20433;-70
2022/04/17 11:12:46;;;;;;;2.50;1.90;;;34.90;16.30;;;;;;5073243;28;20468;-69
2022/04/17 11:15:27;;;;;;;2.93;2.00;;;35.20;16.50;;;;;;5073350;28;20438;-69
2022/04/17 11:18:00;;;;;;;2.70;2.17;;;35.60;16.10;;;;;;5073407;28;20457;-69
2022/04/17 11:20:30;;;;;;;2.70;2.07;;;35.60;13.60;;;;;;5073298;28;20864;-69
2022/04/17 11:22:57;;;;;;;3.40;2.27;;;35.10;13.90;;;;;;5073323;28;20478;-69
2022/04/17 11:25:28;;;;;;;2.67;2.30;;;34.20;14.10;;;;;;5073203;28;20487;-69
2022/04/17 11:27:55;;;;;;;2.20;2.00;;;33.90;16.80;;;;;;5073397;28;20511;-69
2022/04/17 11:30:33;;;;;;;3.37;2.30;;;34.00;16.30;;;;;;5073317;28;20444;-69
2022/04/17 11:33:02;;;;;;;3.80;2.50;;;34.50;17.10;;;;;;5073378;28;20539;-69
2022/04/17 11:35:31;;;;;;;2.67;2.40;;;34.90;16.40;;;;;;5073197;28;20452;-69
2022/04/17 11:38:01;;;;;;;2.40;2.20;;;35.50;16.80;;;;;;5076209;28;20498;-69
2022/04/17 11:40:31;;;;;;;3.43;2.40;;;36.10;16.30;;;;;;5076847;28;20980;-70
2022/04/17 11:43:04;;;;;;;2.53;1.90;;;36.60;15.20;;;;;;5077177;28;20452;-69
2022/04/17 11:45:31;;;;;;;2.43;1.80;;;37.00;14.00;;;;;;5077186;28;20189;-70
2022/04/17 11:48:04;;;;;;;2.80;2.13;;;37.20;12.40;;;;;;5077001;28;20229;-69
2022/04/17 11:50:32;;;;;;;1.90;1.27;;;37.40;14.20;;;;;;5077133;28;20190;-70
2022/04/17 11:53:01;;;;;;;3.15;1.45;;;37.80;14.20;;;;;;5076914;28;20202;-70
2022/04/17 11:55:29;;;;;;;4.07;2.00;;;38.30;13.60;;;;;;5077700;28;20209;-70
2022/04/17 11:57:57;;;;;;;2.17;1.58;;;38.70;13.60;;;;;;5076733;28;20205;-70
2022/04/17 12:00:25;;;;;;;1.52;1.40;;;39.10;12.90;;;;;;5076555;28;20696;-70
2022/04/17 12:03:02;;;;;;;2.08;1.88;;;39.50;13.30;;;;;;5077285;28;20226;-70
2022/04/17 12:05:30;;;;;;;4.90;1.65;;;40.00;13.30;;;;;;5076844;28;20209;-70
2022/04/17 12:08:06;;;;;;;1.73;1.60;;;40.40;12.90;;;;;;5076646;28;20283;-70
2022/04/17 12:10:35;;;;;;;2.03;1.83;;;40.70;12.10;;;;;;5076487;28;20215;-70
2022/04/17 12:13:15;;;;;;;1.90;1.42;;;40.90;11.90;;;;;;5076617;28;20200;-70
2022/04/17 12:15:43;;;;;;;3.17;1.77;;;41.20;12.30;;;;;;5076242;28;20195;-70
2022/04/17 12:18:09;;;;;;;2.17;1.48;;;41.40;12.30;;;;;;5076425;28;20201;-70
2022/04/17 12:20:38;;;;;;;2.53;1.70;;;41.70;11.90;;;;;;5076000;28;20214;-70
2022/04/17 12:23:07;;;;;;;3.00;1.90;;;42.00;11.40;;;;;;5076539;28;20228;-70
2022/04/17 12:25:35;;;;;;;1.85;1.40;;;42.40;11.20;;;;;;5076016;28;20673;-70
2022/04/17 12:28:02;;;;;;;1.55;1.42;;;42.60;11.10;;;;;;5076045;28;20272;-70
2022/04/17 12:30:29;;;;;;;3.15;1.73;;;42.80;11.10;;;;;;5076185;28;20209;-70
2022/04/17 12:32:59;;;;;;;1.55;1.35;;;43.00;11.30;;;;;;5076248;28;20197;-70
2022/04/17 12:35:28;;;;;;;4.30;2.00;;;43.10;10.00;;;;;;5076266;28;20196;-70
2022/04/17 12:38:07;;;;;;;4.07;1.48;;;43.20;10.50;;;;;;5076027;28;20247;-70
2022/04/17 12:40:42;;;;;;;3.00;1.77;;;43.20;9.70;;;;;;5076101;28;20189;-70
2022/04/17 12:43:16;;;;;;;2.42;1.73;;;43.30;11.10;;;;;;5075825;28;20196;-70
2022/04/17 12:45:56;;;;;;;3.13;1.35;;;43.50;9.30;;;;;;5075887;28;20205;-70
2022/04/17 12:48:27;;;;;;;2.13;1.90;;;43.30;10.40;;;;;;5075261;28;20294;-70
2022/04/17 12:51:03;;;;;;;1.73;1.63;;;43.50;10.50;;;;;;5075678;28;20708;-70
2022/04/17 12:53:37;;;;;;;2.00;1.50;;;43.70;11.00;;;;;;5075946;28;20225;-70
2022/04/17 12:56:04;;;;;;;2.97;1.60;;;44.00;10.20;;;;;;5075812;28;20194;-70
2022/04/17 12:58:46;;;;;;;1.75;1.48;;;44.20;10.20;;;;;;5075723;28;20254;-70
2022/04/17 13:01:20;;;;;;;1.67;1.42;;;44.60;10.10;;;;;;5075721;28;20225;-70
2022/04/17 13:03:47;;;;;;;2.05;1.35;;;44.80;10.10;;;;;;5075930;28;20218;-70